Time;durP1;ratioP1;P1;durP2;ratioP2;P2;SDS_P1;SDS_P2;PMS_P1;PMS_P2;Temp;Humidity;BMP_temperature;BMP_pressure;BME280_temperature;BME280_humidity;BME280_pressure;Samples;Min_cycle;Max_cycle;Signal;HPM_P1;HPM_P2
2021/04/13 00:01:16;;;;;;;13.98;8.73;;;487.30;1049.60;;;;;;5058579;28;20031;-73
2021/04/13 00:03:46;;;;;;;31.88;15.95;;;487.00;1100.80;;;;;;5072425;28;20485;-72
2021/04/13 00:06:13;;;;;;;47.80;23.98;;;;;;;;;;5072474;28;20060;-73
2021/04/13 00:08:41;;;;;;;32.40;19.63;;;486.70;1126.40;;;;;;5072620;28;20055;-73
2021/04/13 00:11:10;;;;;;;34.88;19.55;;;486.80;1100.80;;;;;;5072446;28;20025;-73
2021/04/13 00:13:38;;;;;;;36.03;21.33;;;487.00;1075.20;;;;;;5072451;28;20501;-73
2021/04/13 00:16:12;;;;;;;21.98;13.85;;;487.00;1075.20;;;;;;5072272;28;20027;-72
2021/04/13 00:18:41;;;;;;;23.73;13.43;;;487.10;1075.20;;;;;;5072267;28;20020;-73
2021/04/13 00:21:20;;;;;;;25.10;14.05;;;487.10;1075.20;;;;;;5072280;28;20016;-73
2021/04/13 00:23:46;;;;;;;18.42;11.10;;;487.10;1126.40;;;;;;5072429;28;20028;-72
2021/04/13 00:26:23;;;;;;;17.50;10.25;;;487.10;1126.40;;;;;;5071906;28;20096;-72
2021/04/13 00:28:52;;;;;;;16.73;8.73;;;487.10;1126.40;;;;;;5072214;28;20032;-73
2021/04/13 00:31:39;;;;;;;21.83;9.88;;;487.10;1126.40;;;;;;5071781;28;20013;-73
2021/04/13 00:34:23;;;;;;;15.05;8.65;;;487.10;1152.00;;;;;;5072199;28;20024;-73
2021/04/13 00:36:55;;;;;;;14.82;8.30;;;487.10;1126.40;;;;;;5059317;28;20041;-72
2021/04/13 00:39:29;;;;;;;15.77;8.27;;;487.00;1152.00;;;;;;5072225;28;20541;-73
2021/04/13 00:41:59;;;;;;;26.48;15.82;;;487.00;1126.40;;;;;;5053987;28;20490;-72
2021/04/13 00:44:27;;;;;;;19.45;11.23;;;487.00;1126.40;;;;;;5072173;28;20426;-72
2021/04/13 00:47:10;;;;;;;17.35;10.10;;;486.80;1126.40;;;;;;5071904;28;20032;-72
2021/04/13 00:49:40;;;;;;;17.77;9.48;;;486.80;1177.60;;;;;;5072116;28;20035;-73
2021/04/13 00:52:12;;;;;;;32.10;16.75;;;486.70;1177.60;;;;;;5058043;28;20095;-72
2021/04/13 00:54:43;;;;;;;25.70;13.25;;;486.70;1177.60;;;;;;5062618;28;20533;-72
2021/04/13 00:57:17;;;;;;;27.08;13.65;;;486.50;1203.20;;;;;;5074599;28;20032;-73
2021/04/13 00:59:45;;;;;;;22.13;10.93;;;486.40;1203.20;;;;;;5066156;28;20021;-72
2021/04/13 01:02:15;;;;;;;17.08;10.82;;;486.60;1203.20;;;;;;5075888;28;20379;-73
2021/04/13 01:05:06;;;;;;;26.42;14.02;;;486.50;1203.20;;;;;;5076260;28;20013;-73
2021/04/13 01:07:31;;;;;;;20.40;11.55;;;486.70;1177.60;;;;;;5065355;28;20105;-72
2021/04/13 01:10:17;;;;;;;15.40;8.35;;;486.70;1177.60;;;;;;5075650;28;20028;-72
2021/04/13 01:12:51;;;;;;;25.70;13.25;;;486.70;1203.20;;;;;;5075504;28;20012;-73
2021/04/13 01:15:18;;;;;;;19.80;12.18;;;486.50;1203.20;;;;;;5075314;28;20021;-77
2021/04/13 01:17:45;;;;;;;18.38;9.55;;;;;;;;;;5075251;28;20023;-76
2021/04/13 01:20:19;;;;;;;25.90;12.93;;;;;;;;;;5075243;28;20028;-72
2021/04/13 01:25:18;;;;;;;20.65;11.02;;;;;;;;;;5075442;28;20067;-70
2021/04/13 01:27:53;;;;;;;18.67;10.50;;;;;;;;;;5057025;28;20059;-70
2021/04/13 01:30:20;;;;;;;19.92;11.25;;;;;;;;;;5065004;28;20028;-70
2021/04/13 01:32:46;;;;;;;28.05;14.45;;;;;;;;;;5074946;28;20027;-70
2021/04/13 01:35:14;;;;;;;17.70;8.93;;;;;;;;;;5074884;28;20017;-71
2021/04/13 01:40:23;;;;;;;27.58;15.85;;;;;;;;;;5074886;28;20029;-71
2021/04/13 01:42:51;;;;;;;28.35;18.67;;;;;;;;;;5074933;28;20040;-72
2021/04/13 01:45:19;;;;;;;23.63;17.13;;;;;;;;;;5075008;28;20066;-71
2021/04/13 01:47:46;;;;;;;27.00;17.67;;;;;;;;;;5074799;28;20060;-71
2021/04/13 01:50:20;;;;;;;26.60;15.93;;;;;;;;;;5074456;28;20561;-72
2021/04/13 01:52:48;;;;;;;27.17;16.58;;;;;;;;;;5074849;28;20024;-71
2021/04/13 01:55:24;;;;;;;18.95;12.10;;;;;;;;;;5074557;28;20032;-72
2021/04/13 01:58:00;;;;;;;21.65;13.02;;;;;;;;;;5074504;28;20024;-72
2021/04/13 02:00:26;;;;;;;25.50;12.27;;;;;;;;;;5074564;28;20031;-71
2021/04/13 02:02:54;;;;;;;17.25;9.40;;;;;;;;;;5074610;28;20021;-71
2021/04/13 02:05:25;;;;;;;18.88;10.20;;;;;;;;;;5074378;28;20374;-71
2021/04/13 02:07:58;;;;;;;19.17;9.55;;;;;;;;;;5056117;28;20033;-71
2021/04/13 02:10:29;;;;;;;15.77;8.50;;;;;;;;;;5074475;28;20027;-70
2021/04/13 02:13:01;;;;;;;17.15;8.10;;;486.40;1356.80;;;;;;5061151;28;20020;-71
2021/04/13 02:15:27;;;;;;;13.95;9.02;;;;;;;;;;5074513;28;20032;-71
2021/04/13 02:17:55;;;;;;;14.88;8.82;;;;;;;;;;5074192;28;20107;-70
2021/04/13 02:20:26;;;;;;;20.55;9.73;;;;;;;;;;5074132;28;20497;-70
2021/04/13 02:22:52;;;;;;;;;;;;;;;;;;5074545;28;20024;-71
2021/04/13 02:25:22;;;;;;;14.70;9.85;;;;;;;;;;5074287;28;19905;-71
2021/04/13 02:27:49;;;;;;;17.92;10.88;;;;;;;;;;5074701;28;20390;-72
2021/04/13 02:30:17;;;;;;;20.58;11.70;;;;;;;;;;5074236;28;20024;-71
2021/04/13 02:32:46;;;;;;;20.15;9.82;;;461.20;1561.60;;;;;;5073928;28;20066;-71
2021/04/13 02:35:24;;;;;;;16.23;9.73;;;461.20;1561.60;;;;;;5073776;28;20028;-70
2021/04/13 02:37:52;;;;;;;12.55;9.45;;;;;;;;;;5070921;28;20048;-71
2021/04/13 02:40:27;;;;;;;14.65;11.25;;;;;;;;;;5074017;28;20020;-70
2021/04/13 02:42:56;;;;;;;11.85;9.60;;;;;;;;;;5055478;28;20137;-71
2021/04/13 02:45:26;;;;;;;15.88;11.43;;;;;;;;;;5073733;28;20017;-71
2021/04/13 02:47:55;;;;;;;32.95;13.52;;;;;;;;;;5071436;28;20513;-71
2021/04/13 02:50:22;;;;;;;18.38;14.52;;;;;;;;;;5073618;28;20032;-71
2021/04/13 02:52:50;;;;;;;20.20;13.45;;;;;;;;;;5066588;28;20115;-71
2021/04/13 02:55:21;;;;;;;19.52;13.82;;;;;;;;;;5057776;28;20463;-72
2021/04/13 02:57:47;;;;;;;14.45;12.48;;;460.80;1612.80;;;;;;5074473;28;20024;-71
2021/04/13 03:00:23;;;;;;;19.50;13.25;;;436.00;1612.80;;;;;;5072113;28;20028;-72
2021/04/13 03:02:55;;;;;;;24.88;14.30;;;435.80;1612.80;;;;;;5073536;28;20020;-70
2021/04/13 03:05:25;;;;;;;20.50;15.93;;;435.80;1587.20;;;;;;5054611;28;20390;-71
2021/04/13 03:07:52;;;;;;;34.37;17.13;;;;;;;;;;5073192;28;20040;-72
2021/04/13 03:10:21;;;;;;;19.10;14.88;;;;;;;;;;5073292;28;20025;-72
2021/04/13 03:12:52;;;;;;;23.98;15.25;;;435.70;1587.20;;;;;;5072770;28;20027;-71
2021/04/13 03:15:25;;;;;;;22.10;13.93;;;435.50;1612.80;;;;;;5062290;28;20375;-72
2021/04/13 03:17:55;;;;;;;21.80;17.10;;;435.30;1612.80;;;;;;5072253;28;20088;-71
2021/04/13 03:20:24;;;;;;;36.30;27.63;;;435.30;1587.20;;;;;;5072984;28;20024;-71
2021/04/13 03:22:53;;;;;;;29.67;25.88;;;435.30;1561.60;;;;;;5072786;28;20009;-71
2021/04/13 03:25:22;;;;;;;24.77;21.15;;;435.30;1561.60;;;;;;5073116;28;20033;-69
2021/04/13 03:27:48;;;;;;;28.90;25.55;;;435.30;1536.00;;;;;;5041325;28;20083;-71
2021/04/13 03:30:27;;;;;;;25.15;20.98;;;435.30;1536.00;;;;;;5072906;28;20122;-71
2021/04/13 03:33:22;;;;;;;30.98;24.40;;;435.30;1536.00;;;;;;5072411;28;20055;-71
2021/04/13 03:35:48;;;;;;;62.33;42.95;;;435.30;1510.40;;;;;;5072372;28;20382;-71
2021/04/13 03:38:18;;;;;;;24.13;21.40;;;;;;;;;;5072422;28;20016;-72
2021/04/13 03:40:47;;;;;;;20.85;14.13;;;;;;;;;;5072784;28;20020;-72
2021/04/13 03:43:14;;;;;;;37.13;28.40;;;;;;;;;;5072480;28;20467;-70
2021/04/13 03:45:41;;;;;;;27.02;20.95;;;;;;;;;;5068472;28;20112;-71
2021/04/13 03:48:18;;;;;;;41.10;29.98;;;435.20;1484.80;;;;;;5064979;28;20456;-71
2021/04/13 03:50:46;;;;;;;45.67;25.95;;;;;;;;;;5064047;28;20040;-71
2021/04/13 03:53:13;;;;;;;28.15;21.25;;;410.50;1484.80;;;;;;5072435;28;20466;-69
2021/04/13 03:55:40;;;;;;;29.48;20.10;;;410.30;1484.80;;;;;;5072229;28;20025;-70
2021/04/13 03:58:25;;;;;;;22.55;16.75;;;410.30;1510.40;;;;;;5072278;28;20098;-70
2021/04/13 04:00:53;;;;;;;27.05;14.80;;;410.10;1510.40;;;;;;5067131;28;20152;-71
2021/04/13 04:03:19;;;;;;;26.80;17.25;;;410.00;1536.00;;;;;;5063830;28;20021;-71
2021/04/13 04:05:50;;;;;;;26.98;17.45;;;410.00;1536.00;;;;;;5072041;28;20100;-70
2021/04/13 04:08:56;;;;;;;18.52;13.50;;;409.90;1510.40;;;;;;5072399;28;20037;-69
2021/04/13 04:11:32;;;;;;;29.65;18.23;;;409.90;1510.40;;;;;;5050859;28;20067;-69
2021/04/13 04:13:58;;;;;;;25.90;16.25;;;409.70;1536.00;;;;;;5071913;28;20108;-70
2021/04/13 04:16:27;;;;;;;35.80;21.80;;;409.80;1536.00;;;;;;5068282;28;20084;-70
2021/04/13 04:18:54;;;;;;;20.25;15.38;;;409.90;1510.40;;;;;;5072075;28;20474;-70
2021/04/13 04:21:36;;;;;;;42.58;27.95;;;409.90;1510.40;;;;;;5054386;28;20027;-70
2021/04/13 04:24:25;;;;;;;35.05;24.10;;;409.90;1510.40;;;;;;5072076;28;20016;-70
2021/04/13 04:26:55;;;;;;;32.17;19.55;;;410.00;1484.80;;;;;;4990454;28;20026;-71
2021/04/13 04:29:33;;;;;;;22.33;16.17;;;410.00;1484.80;;;;;;4990666;28;20093;-70
2021/04/13 04:32:28;;;;;;;34.28;22.25;;;409.80;1484.80;;;;;;4992913;28;20683;-71
2021/04/13 04:34:56;;;;;;;56.45;40.03;;;409.80;1484.80;;;;;;4994173;28;20505;-70
2021/04/13 04:37:24;;;;;;;44.83;24.30;;;409.70;1484.80;;;;;;4994047;28;20081;-71
2021/04/13 04:40:26;;;;;;;38.35;25.55;;;409.80;1484.80;;;;;;4994269;28;20048;-70
2021/04/13 04:43:01;;;;;;;55.40;40.15;;;409.70;1484.80;;;;;;4994565;28;20023;-69
2021/04/13 04:45:38;;;;;;;31.30;22.08;;;409.70;1484.80;;;;;;4994543;28;20038;-70
2021/04/13 04:48:31;;;;;;;98.63;62.22;;;409.60;1484.80;;;;;;4994469;28;20045;-70
2021/04/13 04:51:00;;;;;;;31.77;20.65;;;409.60;1484.80;;;;;;4994065;28;20034;-69
2021/04/13 04:53:28;;;;;;;66.75;40.75;;;409.70;1459.20;;;;;;4994564;28;20049;-71
2021/04/13 04:55:56;;;;;;;35.90;25.55;;;384.90;1484.80;;;;;;4993723;28;20035;-72
2021/04/13 04:58:23;;;;;;;52.47;30.55;;;409.60;1510.40;;;;;;4994271;28;20049;-70
2021/04/13 05:00:50;;;;;;;40.80;21.30;;;409.70;1459.20;;;;;;4994238;28;20029;-70
2021/04/13 05:03:17;;;;;;;84.18;48.00;;;409.70;1459.20;;;;;;5006957;28;20125;-70
2021/04/13 05:05:43;;;;;;;50.58;34.05;;;409.70;1433.60;;;;;;5072870;28;20024;-70
2021/04/13 05:08:09;;;;;;;38.83;28.40;;;409.60;1433.60;;;;;;5075390;28;20049;-71
2021/04/13 05:10:34;;;;;;;26.83;19.30;;;384.90;1484.80;;;;;;5057245;28;20520;-73
2021/04/13 05:13:01;;;;;;;18.33;14.10;;;384.90;1484.80;;;;;;5077029;28;20036;-70
2021/04/13 05:15:26;;;;;;;21.27;18.33;;;384.90;1484.80;;;;;;5057234;28;20071;-70
2021/04/13 05:17:52;;;;;;;28.52;22.75;;;409.60;1433.60;;;;;;5075190;28;20505;-70
2021/04/13 05:20:18;;;;;;;20.75;15.73;;;409.60;1433.60;;;;;;5075308;28;20104;-70
2021/04/13 05:22:44;;;;;;;17.95;14.20;;;384.70;1484.80;;;;;;5075081;28;20020;-71
2021/04/13 05:25:11;;;;;;;17.42;12.85;;;;;;;;;;5075320;28;20545;-71
2021/04/13 05:27:37;;;;;;;18.88;13.60;;;;;;;;;;5074630;28;20024;-70
2021/04/13 05:30:05;;;;;;;26.02;17.98;;;;;;;;;;5075474;28;20050;-72
2021/04/13 05:32:31;;;;;;;28.33;18.67;;;;;;;;;;5075119;28;20021;-71
2021/04/13 05:34:57;;;;;;;21.67;15.82;;;;;;;;;;5075328;28;20432;-72
2021/04/13 05:37:25;;;;;;;28.05;18.10;;;;;;;;;;5067083;28;20048;-72
2021/04/13 05:39:51;;;;;;;21.25;17.05;;;;;;;;;;5060391;28;20139;-71
2021/04/13 05:42:25;;;;;;;42.63;28.35;;;;;;;;;;5055634;28;20391;-71
2021/04/13 05:44:54;;;;;;;27.50;18.00;;;384.00;1536.00;;;;;;5074701;28;20497;-72
2021/04/13 05:47:20;;;;;;;23.20;14.05;;;;;;;;;;5041866;28;20052;-72
2021/04/13 05:49:46;;;;;;;21.98;15.00;;;;;;;;;;5068010;28;20024;-72
2021/04/13 05:52:12;;;;;;;44.45;26.25;;;;;;;;;;5072615;28;20107;-71
2021/04/13 05:54:38;;;;;;;27.33;18.63;;;;;;;;;;5074643;28;20013;-71
2021/04/13 05:57:05;;;;;;;35.22;20.38;;;359.30;1587.20;;;;;;5074401;28;20017;-73
2021/04/13 05:59:33;;;;;;;53.72;31.73;;;;;;;;;;5065992;28;20036;-71
2021/04/13 06:01:59;;;;;;;44.75;29.55;;;;;;;;;;5068836;28;20048;-72
2021/04/13 06:04:25;;;;;;;24.45;17.38;;;;;;;;;;5061244;28;20386;-71
2021/04/13 06:06:51;;;;;;;31.67;21.58;;;;;;;;;;5074064;28;20078;-72
2021/04/13 06:09:17;;;;;;;25.65;18.15;;;384.00;1484.80;;;;;;5062477;28;20103;-70
2021/04/13 06:11:43;;;;;;;34.00;22.30;;;359.20;1484.80;;;;;;5052731;28;20037;-72
2021/04/13 06:14:11;;;;;;;25.33;16.38;;;359.30;1484.80;;;;;;5070829;28;20056;-70
2021/04/13 06:16:38;;;;;;;42.58;25.52;;;359.00;1510.40;;;;;;5056209;28;20043;-70
2021/04/13 06:19:05;;;;;;;18.40;14.65;;;359.20;1510.40;;;;;;5073954;28;20070;-71
2021/04/13 06:21:31;;;;;;;33.90;20.55;;;359.20;1484.80;;;;;;5074000;28;20488;-70
2021/04/13 06:23:57;;;;;;;29.45;19.13;;;358.90;1510.40;;;;;;5074412;28;20040;-72
2021/04/13 06:26:23;;;;;;;19.63;14.05;;;359.00;1510.40;;;;;;5073648;28;20056;-71
2021/04/13 06:28:49;;;;;;;34.83;18.45;;;359.00;1459.20;;;;;;5073694;28;20070;-71
2021/04/13 06:31:15;;;;;;;34.13;18.08;;;359.00;1459.20;;;;;;5073657;28;20067;-71
2021/04/13 06:33:40;;;;;;;25.38;16.85;;;359.20;1433.60;;;;;;5073670;28;20095;-71
2021/04/13 06:36:08;;;;;;;17.05;12.93;;;359.20;1433.60;;;;;;5073256;28;20182;-70
2021/04/13 06:38:38;;;;;;;23.02;16.35;;;359.00;1459.20;;;;;;5073321;28;20021;-72
2021/04/13 06:41:22;;;;;;;28.08;17.13;;;359.00;1459.20;;;;;;5073143;28;20028;-71
2021/04/13 06:44:12;;;;;;;21.10;15.93;;;359.00;1459.20;;;;;;5073457;28;20031;-72
2021/04/13 06:46:53;;;;;;;23.20;15.57;;;359.10;1433.60;;;;;;5064494;28;20395;-72
2021/04/13 06:49:25;;;;;;;21.07;12.43;;;359.20;1433.60;;;;;;5055670;28;20067;-72
2021/04/13 06:51:54;;;;;;;23.05;15.00;;;359.00;1459.20;;;;;;5073118;28;20107;-73
2021/04/13 06:54:31;;;;;;;27.23;16.85;;;;;;;;;;5072993;28;20058;-71
2021/04/13 06:56:57;;;;;;;21.58;14.32;;;;;;;;;;5072770;28;20016;-72
2021/04/13 06:59:54;;;;;;;18.67;13.82;;;358.40;1536.00;;;;;;5073198;28;20482;-71
2021/04/13 07:02:35;;;;;;;16.42;14.00;;;333.60;1587.20;;;;;;5072964;28;20024;-72
2021/04/13 07:05:12;;;;;;;24.92;16.98;;;333.20;1638.40;;;;;;5072979;28;20039;-72
2021/04/13 07:07:49;;;;;;;29.42;17.55;;;333.30;1638.40;;;;;;5054936;28;20037;-72
2021/04/13 07:10:33;;;;;;;21.10;15.35;;;358.50;1536.00;;;;;;5073148;28;20033;-73
2021/04/13 07:13:18;;;;;;;22.38;14.27;;;359.10;1484.80;;;;;;5055169;28;20378;-73
2021/04/13 07:16:10;;;;;;;19.63;13.85;;;358.90;1484.80;;;;;;5072828;28;20070;-73
2021/04/13 07:18:52;;;;;;;21.83;15.93;;;358.50;1536.00;;;;;;5072960;28;20021;-71
2021/04/13 07:21:23;;;;;;;24.23;15.63;;;358.50;1561.60;;;;;;5072767;28;20008;-72
2021/04/13 07:23:52;;;;;;;;;;;333.50;1587.20;;;;;;5073112;28;20021;-71
2021/04/13 07:26:31;;;;;;;24.08;15.93;;;358.50;1561.60;;;;;;5072381;28;19904;-71
2021/04/13 07:29:20;;;;;;;21.38;14.35;;;358.40;1561.60;;;;;;5072700;28;20116;-72
2021/04/13 07:31:59;;;;;;;13.00;11.70;;;358.40;1561.60;;;;;;5060487;28;20134;-70
2021/04/13 07:34:26;;;;;;;17.92;14.65;;;333.50;1587.20;;;;;;5072477;28;20028;-71
2021/04/13 07:37:21;;;;;;;19.15;14.55;;;333.60;1587.20;;;;;;5072171;28;20036;-71
2021/04/13 07:39:53;;;;;;;23.73;17.52;;;333.70;1587.20;;;;;;5072305;28;20099;-71
2021/04/13 07:42:24;;;;;;;24.20;18.85;;;358.50;1587.20;;;;;;5072305;28;20024;-72
2021/04/13 07:45:13;;;;;;;19.57;14.17;;;358.50;1612.80;;;;;;5072516;28;20047;-71
2021/04/13 07:47:44;;;;;;;19.30;15.07;;;333.50;1664.00;;;;;;5010754;28;20053;-71
2021/04/13 07:50:11;;;;;;;;;;;333.60;1664.00;;;;;;5010724;28;20042;-71
2021/04/13 07:52:41;;;;;;;22.58;18.20;;;333.40;1664.00;;;;;;5010402;28;20284;-71
2021/04/13 07:55:07;;;;;;;23.10;16.53;;;333.40;1689.60;;;;;;5010426;28;20037;-71
2021/04/13 07:57:42;;;;;;;21.50;16.48;;;333.40;1715.20;;;;;;5001389;28;20026;-72
2021/04/13 08:00:13;;;;;;;21.40;16.17;;;333.70;1638.40;;;;;;5010472;28;20128;-72
2021/04/13 08:02:40;;;;;;;25.40;19.35;;;333.50;1664.00;;;;;;5010371;28;20112;-70
2021/04/13 08:05:09;;;;;;;29.67;21.23;;;333.40;1689.60;;;;;;5009904;28;20280;-72
2021/04/13 08:07:38;;;;;;;34.40;21.95;;;358.50;1689.60;;;;;;5009543;28;20073;-70
2021/04/13 08:10:12;;;;;;;28.65;20.85;;;333.30;1715.20;;;;;;5010418;28;20479;-71
2021/04/13 08:12:59;;;;;;;33.83;21.52;;;333.30;1740.80;;;;;;5010169;28;20048;-73
2021/04/13 08:15:46;;;;;;;19.83;17.60;;;333.70;1689.60;;;;;;5010236;28;20030;-74
2021/04/13 08:18:20;;;;;;;21.88;15.65;;;358.60;1638.40;;;;;;4998542;28;20030;-72
2021/04/13 08:20:46;;;;;;;20.38;16.58;;;;;;;;;;5010171;28;20052;-74
2021/04/13 08:23:24;;;;;;;28.33;21.02;;;;;;;;;;5010199;28;20037;-70
2021/04/13 08:25:55;;;;;;;24.40;20.00;;;358.50;1638.40;;;;;;5066489;28;20045;-71
2021/04/13 08:28:27;;;;;;;23.25;18.58;;;358.50;1638.40;;;;;;5072034;28;20043;-71
2021/04/13 08:34:04;;;;;;;24.08;18.55;;;358.60;1664.00;;;;;;5072685;28;20047;-71
2021/04/13 08:36:45;;;;;;;32.38;24.63;;;358.50;1689.60;;;;;;5071697;28;20068;-71
2021/04/13 08:39:37;;;;;;;28.10;21.73;;;358.40;1689.60;;;;;;5071750;28;20078;-70
2021/04/13 08:42:06;;;;;;;31.80;24.80;;;358.80;1689.60;;;;;;5060086;28;20417;-70
2021/04/13 08:44:49;;;;;;;27.20;20.48;;;333.50;1766.40;;;;;;5071921;28;20031;-71
2021/04/13 08:47:28;;;;;;;22.23;17.95;;;358.50;1740.80;;;;;;5072174;28;20102;-71
2021/04/13 08:50:00;;;;;;;31.38;21.80;;;358.60;1715.20;;;;;;5071629;28;20498;-70
2021/04/13 08:52:44;;;;;;;25.08;19.95;;;358.60;1689.60;;;;;;5057577;28;20013;-70
2021/04/13 08:55:28;;;;;;;35.88;25.00;;;358.70;1689.60;;;;;;5071615;28;20479;-71
2021/04/13 08:58:20;;;;;;;28.27;20.92;;;358.70;1715.20;;;;;;5071544;28;20098;-71
2021/04/13 09:00:47;;;;;;;28.27;21.00;;;333.60;1792.00;;;;;;5071544;28;20071;-71
2021/04/13 09:03:26;;;;;;;21.88;19.00;;;333.40;1817.60;;;;;;5071695;28;20017;-71
2021/04/13 09:06:13;;;;;;;27.10;21.45;;;333.30;1817.60;;;;;;5071354;28;20032;-72
2021/04/13 09:08:50;;;;;;;30.95;23.92;;;333.70;1843.20;;;;;;5071385;28;20041;-72
2021/04/13 09:11:25;;;;;;;29.50;22.58;;;358.70;1766.40;;;;;;5071653;28;20020;-70
2021/04/13 09:14:02;;;;;;;31.05;25.08;;;358.80;1740.80;;;;;;5071602;28;20490;-70
2021/04/13 09:16:29;;;;;;;35.45;28.33;;;358.80;1740.80;;;;;;5071339;28;20064;-71
2021/04/13 09:18:59;;;;;;;31.17;24.48;;;358.50;1817.60;;;;;;5075083;28;20118;-70
2021/04/13 09:21:33;;;;;;;35.05;25.27;;;333.60;1868.80;;;;;;5075128;28;20089;-71
2021/04/13 09:24:07;;;;;;;33.05;27.08;;;358.40;1843.20;;;;;;5074998;28;20591;-71
2021/04/13 09:27:03;;;;;;;31.67;24.55;;;358.40;1868.80;;;;;;5061978;28;20103;-70
2021/04/13 09:29:50;;;;;;;37.00;23.55;;;358.50;1817.60;;;;;;5074888;28;20036;-71
2021/04/13 09:32:25;;;;;;;28.52;22.23;;;358.80;1843.20;;;;;;5075330;28;20028;-71
2021/04/13 09:35:00;;;;;;;54.92;32.33;;;358.50;1817.60;;;;;;5074653;28;20066;-70
2021/04/13 09:37:55;;;;;;;136.98;72.57;;;358.50;1792.00;;;;;;5074517;28;20055;-70
2021/04/13 09:40:27;;;;;;;75.68;43.17;;;358.70;1792.00;;;;;;5074749;28;20024;-70
2021/04/13 09:43:05;;;;;;;;;;;358.40;1792.00;;;;;;5057172;28;20028;-71
2021/04/13 09:45:39;;;;;;;34.92;25.55;;;333.60;1894.40;;;;;;5074525;28;20294;-71
2021/04/13 09:48:19;;;;;;;25.05;20.02;;;333.70;1843.20;;;;;;5074505;28;20470;-71
2021/04/13 09:51:12;;;;;;;27.75;18.73;;;333.20;1920.00;;;;;;5074915;28;20421;-70
2021/04/13 09:53:59;;;;;;;25.90;19.92;;;333.50;1920.00;;;;;;5074439;28;20496;-71
2021/04/13 09:56:43;;;;;;;23.23;19.52;;;358.90;1843.20;;;;;;5074316;28;20062;-71
2021/04/13 09:59:34;;;;;;;35.63;27.33;;;358.80;1843.20;;;;;;5074610;28;20462;-72
2021/04/13 10:02:21;;;;;;;51.72;37.60;;;359.20;1792.00;;;;;;5074304;28;20596;-71
2021/04/13 10:05:27;;;;;;;40.13;29.52;;;359.10;1817.60;;;;;;5074213;28;20069;-69
2021/04/13 10:08:02;;;;;;;39.33;27.67;;;359.00;1843.20;;;;;;5012139;28;20034;-71
2021/04/13 10:10:41;;;;;;;35.05;28.02;;;359.00;1817.60;;;;;;4995825;28;20037;-71
2021/04/13 10:13:37;;;;;;;32.13;24.20;;;359.00;1766.40;;;;;;5012384;28;20100;-71
2021/04/13 10:16:14;;;;;;;29.52;24.13;;;359.00;1817.60;;;;;;5012129;28;20040;-72
2021/04/13 10:18:58;;;;;;;36.17;28.88;;;359.10;1792.00;;;;;;5012097;28;20067;-71
2021/04/13 10:22:01;;;;;;;48.25;33.75;;;359.10;1792.00;;;;;;5012095;28;20037;-72
2021/04/13 10:24:38;;;;;;;38.97;28.83;;;358.90;1792.00;;;;;;5011839;28;20037;-71
2021/04/13 10:27:31;;;;;;;28.73;23.75;;;358.80;1817.60;;;;;;5011789;28;20030;-70
2021/04/13 10:30:20;;;;;;;51.47;38.20;;;358.80;1792.00;;;;;;5011019;28;20030;-70
2021/04/13 10:33:23;;;;;;;105.43;69.28;;;358.80;1843.20;;;;;;5011646;28;20069;-71
2021/04/13 10:36:09;;;;;;;53.10;38.65;;;358.80;1817.60;;;;;;5011550;28;20025;-71
2021/04/13 10:39:04;;;;;;;89.15;69.50;;;;;;;;;;5039698;28;20032;-71
2021/04/13 10:41:39;;;;;;;39.53;35.38;;;;;;;;;;5011609;28;20516;-71
2021/04/13 10:44:23;;;;;;;37.50;27.55;;;;;;;;;;5011946;28;20030;-70
2021/04/13 10:46:53;;;;;;;42.00;27.75;;;;;;;;;;5011414;28;20042;-71
2021/04/13 10:49:43;;;;;;;37.63;28.08;;;358.60;1868.80;;;;;;4995174;28;20116;-70
2021/04/13 10:52:29;;;;;;;37.97;28.25;;;358.50;1894.40;;;;;;5011410;28;20030;-71
2021/04/13 10:54:55;;;;;;;41.50;28.73;;;;;;;;;;5011342;28;20544;-71
2021/04/13 10:57:36;;;;;;;46.53;32.40;;;;;;;;;;5002269;28;20112;-72
2021/04/13 11:00:05;;;;;;;39.78;26.90;;;;;;;;;;5011287;28;20120;-72
2021/04/13 11:02:50;;;;;;;43.72;30.90;;;;;;;;;;5011273;28;20024;-72
2021/04/13 11:05:19;;;;;;;50.55;34.10;;;;;;;;;;5011310;28;20034;-72
2021/04/13 11:07:54;;;;;;;46.17;31.10;;;;;;;;;;4997238;28;20045;-72
2021/04/13 11:10:28;;;;;;;37.75;28.13;;;;;;;;;;5011080;28;20034;-71
2021/04/13 11:12:57;;;;;;;35.35;27.00;;;;;;;;;;5011307;28;20092;-71
2021/04/13 11:15:29;;;;;;;54.13;32.88;;;;;;;;;;5011005;28;20018;-71
2021/04/13 11:18:01;;;;;;;43.20;28.45;;;;;;;;;;5038077;28;20086;-71
2021/04/13 11:20:46;;;;;;;49.28;32.92;;;;;;;;;;5072684;28;20039;-72
2021/04/13 11:23:24;;;;;;;50.63;35.05;;;;;;;;;;5060031;28;20028;-72
2021/04/13 11:25:56;;;;;;;53.42;36.67;;;;;;;;;;5072336;28;20110;-72
2021/04/13 11:28:41;;;;;;;46.85;32.95;;;;;;;;;;5072632;28;20079;-72
2021/04/13 11:31:19;;;;;;;32.97;27.50;;;;;;;;;;5072456;28;20501;-71
2021/04/13 11:33:58;;;;;;;32.15;23.60;;;;;;;;;;5072548;28;20043;-72
2021/04/13 11:36:24;;;;;;;31.80;27.17;;;;;;;;;;5072178;28;20036;-71
2021/04/13 11:38:59;;;;;;;38.28;27.05;;;;;;;;;;5072497;28;20031;-70
2021/04/13 11:41:25;;;;;;;28.98;21.63;;;;;;;;;;5071409;28;20498;-71
2021/04/13 11:43:59;;;;;;;30.85;23.60;;;358.50;1817.60;;;;;;5072238;28;20017;-71
2021/04/13 11:46:52;;;;;;;33.38;24.70;;;333.60;1817.60;;;;;;5072312;28;20016;-72
2021/04/13 11:49:42;;;;;;;46.65;31.77;;;333.70;1843.20;;;;;;5060430;28;20028;-72
2021/04/13 11:52:34;;;;;;;48.33;36.58;;;333.70;1817.60;;;;;;5072099;28;20204;-71
2021/04/13 11:55:01;;;;;;;37.25;26.90;;;333.70;1868.80;;;;;;5072341;28;20034;-71
2021/04/13 11:57:35;;;;;;;51.00;34.53;;;333.50;1894.40;;;;;;5072039;28;20038;-72
2021/04/13 12:00:10;;;;;;;51.92;37.83;;;333.60;1894.40;;;;;;5054408;28;20032;-72
2021/04/13 12:02:38;;;;;;;65.95;41.03;;;;;;;;;;5072158;28;20024;-71
2021/04/13 12:05:04;;;;;;;45.25;33.63;;;;;;;;;;5072438;28;20070;-73
2021/04/13 12:07:49;;;;;;;40.95;30.50;;;;;;;;;;5072177;28;20036;-73
2021/04/13 12:10:30;;;;;;;50.97;35.03;;;358.40;1868.80;;;;;;5071855;28;20548;-72
2021/04/13 12:13:01;;;;;;;52.45;40.60;;;333.70;1868.80;;;;;;5474456;22;20056;-72
2021/04/13 12:15:26;;;;;;;65.00;47.63;;;333.60;1868.80;;;;;;5112719;28;20030;-72
2021/04/13 12:17:56;;;;;;;74.25;44.58;;;333.60;1868.80;;;;;;5112745;28;20461;-71
2021/04/13 12:20:42;;;;;;;67.25;51.90;;;333.60;1868.80;;;;;;5112544;28;20023;-72
2021/04/13 12:23:11;;;;;;;52.25;39.80;;;333.60;1894.40;;;;;;5112275;28;20132;-73
2021/04/13 12:25:39;;;;;;;49.25;36.13;;;333.50;1894.40;;;;;;5112411;28;20027;-70
2021/04/13 12:28:11;;;;;;;48.67;36.97;;;333.40;1868.80;;;;;;5098219;28;20411;-70
2021/04/13 12:30:43;;;;;;;45.90;33.72;;;333.30;1920.00;;;;;;5112801;28;20373;-72
2021/04/13 12:33:27;;;;;;;40.30;31.55;;;333.30;1894.40;;;;;;5112379;28;20030;-71
2021/04/13 12:36:08;;;;;;;40.97;34.10;;;333.30;1894.40;;;;;;5112602;28;20031;-71
2021/04/13 12:38:42;;;;;;;49.38;41.83;;;333.30;1894.40;;;;;;5112493;28;20020;-72
2021/04/13 12:41:17;;;;;;;36.50;30.95;;;333.40;1868.80;;;;;;5093882;28;20576;-70
2021/04/13 12:43:53;;;;;;;40.03;30.45;;;333.20;1894.40;;;;;;5098355;28;20118;-72
2021/04/13 12:46:24;;;;;;;37.58;26.80;;;333.30;1894.40;;;;;;5112322;28;20058;-71
2021/04/13 12:48:52;;;;;;;38.47;34.28;;;333.30;1894.40;;;;;;5112559;28;20045;-72
2021/04/13 12:51:28;;;;;;;40.25;31.13;;;333.30;1868.80;;;;;;5112242;28;20076;-71
2021/04/13 12:54:15;;;;;;;36.15;27.67;;;333.30;1868.80;;;;;;5116034;28;20148;-72
2021/04/13 12:56:48;;;;;;;31.25;27.85;;;333.40;1868.80;;;;;;5100429;28;20509;-71
2021/04/13 12:59:18;;;;;;;31.02;25.38;;;333.40;1843.20;;;;;;5116498;28;20034;-72
2021/04/13 13:01:46;;;;;;;27.23;23.25;;;333.20;1868.80;;;;;;5097575;28;20036;-71
2021/04/13 13:04:15;;;;;;;31.48;25.67;;;333.30;1868.80;;;;;;5116160;28;20020;-72
2021/04/13 13:07:03;;;;;;;33.97;28.88;;;333.30;1868.80;;;;;;5116201;28;20023;-69
2021/04/13 13:09:39;;;;;;;36.92;27.25;;;333.10;1920.00;;;;;;5115952;28;20085;-70
2021/04/13 13:12:28;;;;;;;37.85;30.48;;;333.20;1920.00;;;;;;5115762;28;20482;-70
2021/04/13 13:15:14;;;;;;;33.45;27.88;;;333.20;1894.40;;;;;;5093381;28;20032;-70
2021/04/13 13:17:46;;;;;;;30.95;25.58;;;333.30;1868.80;;;;;;5116098;28;20488;-70
2021/04/13 13:20:28;;;;;;;35.38;26.38;;;333.20;1894.40;;;;;;5116189;28;20032;-70